sensor_id;sensor_type;location;lat;lon;timestamp;pressure;altitude;pressure_sealevel;temperature;humidity
75447;BME280;64024;55.820;37.574;2023-03-01T00:01:33;97925.75;;;14.95;37.85
75447;BME280;64024;55.820;37.574;2023-03-01T00:03:59;97922.53;;;14.92;38.04
75447;BME280;64024;55.820;37.574;2023-03-01T00:06:26;97932.97;;;14.89;37.78
75447;BME280;64024;55.820;37.574;2023-03-01T00:08:52;97919.34;;;14.85;37.81
75447;BME280;64024;55.820;37.574;2023-03-01T00:11:21;97920.38;;;14.79;37.69
75447;BME280;64024;55.820;37.574;2023-03-01T00:13:49;97917.72;;;14.74;37.39
75447;BME280;64024;55.820;37.574;2023-03-01T00:16:16;97920.38;;;14.79;37.18
75447;BME280;64024;55.820;37.574;2023-03-01T00:18:43;97914.78;;;14.71;37.38
75447;BME280;64024;55.820;37.574;2023-03-01T00:21:08;97921.19;;;14.64;37.36
75447;BME280;64024;55.820;37.574;2023-03-01T00:23:34;97913.97;;;14.65;37.17
75447;BME280;64024;55.820;37.574;2023-03-01T00:26:01;97912.66;;;14.73;37.64
75447;BME280;64024;55.820;37.574;2023-03-01T00:28:26;97911.03;;;14.82;37.36
75447;BME280;64024;55.820;37.574;2023-03-01T00:30:52;97919.06;;;14.97;37.41
75447;BME280;64024;55.820;37.574;2023-03-01T00:33:17;97909.69;;;15.15;37.32
75447;BME280;64024;55.820;37.574;2023-03-01T00:35:43;97912.84;;;15.32;37.43
75447;BME280;64024;55.820;37.574;2023-03-01T00:38:09;97910.66;;;15.50;36.86
75447;BME280;64024;55.820;37.574;2023-03-01T00:40:36;97913.59;;;15.69;36.81
75447;BME280;64024;55.820;37.574;2023-03-01T00:43:03;97910.03;;;15.88;36.84
75447;BME280;64024;55.820;37.574;2023-03-01T00:45:29;97912.31;;;16.10;36.37
75447;BME280;64024;55.820;37.574;2023-03-01T00:47:56;97911.13;;;16.32;36.15
75447;BME280;64024;55.820;37.574;2023-03-01T00:50:22;97900.28;;;16.52;35.87
75447;BME280;64024;55.820;37.574;2023-03-01T00:52:52;97907.91;;;16.74;35.90
75447;BME280;64024;55.820;37.574;2023-03-01T00:55:18;97901.28;;;16.96;35.77
75447;BME280;64024;55.820;37.574;2023-03-01T00:57:43;97902.19;;;17.15;35.40
75447;BME280;64024;55.820;37.574;2023-03-01T01:00:09;97900.09;;;17.36;35.50
75447;BME280;64024;55.820;37.574;2023-03-01T01:02:36;97900.97;;;17.55;35.10
75447;BME280;64024;55.820;37.574;2023-03-01T01:05:02;97898.44;;;17.64;34.85
75447;BME280;64024;55.820;37.574;2023-03-01T01:07:28;97899.47;;;17.68;34.78
75447;BME280;64024;55.820;37.574;2023-03-01T01:09:53;97901.06;;;17.69;34.22
75447;BME280;64024;55.820;37.574;2023-03-01T01:12:19;97897.88;;;17.67;34.42
75447;BME280;64024;55.820;37.574;2023-03-01T01:14:44;97893.56;;;17.66;34.35
75447;BME280;64024;55.820;37.574;2023-03-01T01:17:10;97892.28;;;17.63;34.47
75447;BME280;64024;55.820;37.574;2023-03-01T01:19:36;97895.81;;;17.59;34.32
75447;BME280;64024;55.820;37.574;2023-03-01T01:22:01;97893.16;;;17.54;34.14
75447;BME280;64024;55.820;37.574;2023-03-01T01:24:27;97906.97;;;17.47;33.85
75447;BME280;64024;55.820;37.574;2023-03-01T01:26:52;97906.50;;;17.40;33.94
75447;BME280;64024;55.820;37.574;2023-03-01T01:29:18;97908.72;;;17.33;33.84
75447;BME280;64024;55.820;37.574;2023-03-01T01:31:43;97906.63;;;17.25;33.58
75447;BME280;64024;55.820;37.574;2023-03-01T01:34:16;97912.13;;;17.14;33.16
75447;BME280;64024;55.820;37.574;2023-03-01T01:36:42;97910.06;;;17.06;33.45
75447;BME280;64024;55.820;37.574;2023-03-01T01:39:08;97917.91;;;16.98;33.59
75447;BME280;64024;55.820;37.574;2023-03-01T01:41:39;97912.63;;;16.87;33.38
75447;BME280;64024;55.820;37.574;2023-03-01T01:44:25;97913.50;;;16.78;33.24
75447;BME280;64024;55.820;37.574;2023-03-01T01:47:04;97921.63;;;16.68;33.24
75447;BME280;64024;55.820;37.574;2023-03-01T01:49:38;97910.16;;;16.57;33.17
75447;BME280;64024;55.820;37.574;2023-03-01T01:52:17;97911.28;;;16.46;32.93
75447;BME280;64024;55.820;37.574;2023-03-01T02:00:06;97904.00;;;16.12;33.25
75447;BME280;64024;55.820;37.574;2023-03-01T02:02:32;97891.47;;;16.02;33.27
75447;BME280;64024;55.820;37.574;2023-03-01T02:05:14;97903.31;;;15.91;33.26
75447;BME280;64024;55.820;37.574;2023-03-01T02:07:43;97894.53;;;15.80;33.02
75447;BME280;64024;55.820;37.574;2023-03-01T02:10:09;97916.78;;;15.71;32.61
75447;BME280;64024;55.820;37.574;2023-03-01T02:12:35;97920.28;;;15.61;32.95
75447;BME280;64024;55.820;37.574;2023-03-01T02:15:02;97913.09;;;15.51;33.27
75447;BME280;64024;55.820;37.574;2023-03-01T02:17:28;97917.38;;;15.42;33.09
75447;BME280;64024;55.820;37.574;2023-03-01T02:23:07;97917.94;;;15.24;33.18
75447;BME280;64024;55.820;37.574;2023-03-01T02:31:10;97920.91;;;14.97;33.15
75447;BME280;64024;55.820;37.574;2023-03-01T02:33:55;97916.66;;;14.85;33.39
75447;BME280;64024;55.820;37.574;2023-03-01T02:36:45;97922.53;;;14.77;32.97
75447;BME280;64024;55.820;37.574;2023-03-01T02:39:14;97916.94;;;14.69;33.67
75447;BME280;64024;55.820;37.574;2023-03-01T02:41:47;97920.13;;;14.60;33.37
75447;BME280;64024;55.820;37.574;2023-03-01T02:44:13;97919.84;;;14.62;33.67
75447;BME280;64024;55.820;37.574;2023-03-01T02:47:01;97915.28;;;14.67;33.45
75447;BME280;64024;55.820;37.574;2023-03-01T02:49:30;97927.91;;;14.77;33.62
75447;BME280;64024;55.820;37.574;2023-03-01T02:55:05;97922.25;;;15.09;33.60
75447;BME280;64024;55.820;37.574;2023-03-01T02:57:33;97928.38;;;15.25;33.85
75447;BME280;64024;55.820;37.574;2023-03-01T03:00:03;97931.84;;;15.41;33.78
75447;BME280;64024;55.820;37.574;2023-03-01T03:02:34;97927.75;;;15.59;33.45
75447;BME280;64024;55.820;37.574;2023-03-01T03:05:12;97934.72;;;15.80;33.45
75447;BME280;64024;55.820;37.574;2023-03-01T03:07:40;97926.56;;;16.01;33.37
75447;BME280;64024;55.820;37.574;2023-03-01T03:10:10;97925.66;;;16.21;33.22
75447;BME280;64024;55.820;37.574;2023-03-01T03:12:37;97933.34;;;16.37;32.91
75447;BME280;64024;55.820;37.574;2023-03-01T03:15:04;97923.06;;;16.50;32.99
75447;BME280;64024;55.820;37.574;2023-03-01T03:17:38;97931.31;;;16.63;32.96
75447;BME280;64024;55.820;37.574;2023-03-01T03:20:06;97935.53;;;16.75;32.74
75447;BME280;64024;55.820;37.574;2023-03-01T03:22:36;97939.44;;;16.87;32.97
75447;BME280;64024;55.820;37.574;2023-03-01T03:25:01;97936.69;;;16.98;32.75
75447;BME280;64024;55.820;37.574;2023-03-01T03:27:27;97938.50;;;17.07;32.87
75447;BME280;64024;55.820;37.574;2023-03-01T03:29:53;97927.69;;;17.18;32.89
75447;BME280;64024;55.820;37.574;2023-03-01T03:32:18;97935.34;;;17.29;32.77
75447;BME280;64024;55.820;37.574;2023-03-01T03:34:44;97935.53;;;17.38;32.94
75447;BME280;64024;55.820;37.574;2023-03-01T03:37:10;97929.81;;;17.45;32.88
75447;BME280;64024;55.820;37.574;2023-03-01T03:39:55;97937.00;;;17.49;32.75
75447;BME280;64024;55.820;37.574;2023-03-01T03:42:21;97940.78;;;17.48;32.75
75447;BME280;64024;55.820;37.574;2023-03-01T03:44:47;97941.09;;;17.47;32.82
75447;BME280;64024;55.820;37.574;2023-03-01T03:47:13;97944.34;;;17.44;32.71
75447;BME280;64024;55.820;37.574;2023-03-01T03:49:39;97932.25;;;17.41;32.91
75447;BME280;64024;55.820;37.574;2023-03-01T03:52:04;97936.59;;;17.37;33.00
75447;BME280;64024;55.820;37.574;2023-03-01T03:54:39;97938.53;;;17.31;32.85
75447;BME280;64024;55.820;37.574;2023-03-01T03:57:06;97941.28;;;17.26;33.04
75447;BME280;64024;55.820;37.574;2023-03-01T03:59:31;97929.28;;;17.19;33.14
75447;BME280;64024;55.820;37.574;2023-03-01T04:01:57;97932.28;;;17.12;33.34
75447;BME280;64024;55.820;37.574;2023-03-01T04:04:22;97931.53;;;17.06;33.41
75447;BME280;64024;55.820;37.574;2023-03-01T04:06:48;97940.97;;;16.99;33.20
75447;BME280;64024;55.820;37.574;2023-03-01T04:09:13;97941.59;;;16.90;33.57
75447;BME280;64024;55.820;37.574;2023-03-01T04:11:39;97952.66;;;16.84;33.47
75447;BME280;64024;55.820;37.574;2023-03-01T04:14:04;97949.47;;;16.77;33.57
75447;BME280;64024;55.820;37.574;2023-03-01T04:16:30;97954.31;;;16.70;33.65
75447;BME280;64024;55.820;37.574;2023-03-01T04:18:55;97951.16;;;16.62;33.73
75447;BME280;64024;55.820;37.574;2023-03-01T04:21:21;97954.94;;;16.56;33.70
75447;BME280;64024;55.820;37.574;2023-03-01T04:23:47;97949.38;;;16.48;33.88
75447;BME280;64024;55.820;37.574;2023-03-01T04:26:13;97950.47;;;16.41;34.02
75447;BME280;64024;55.820;37.574;2023-03-01T04:28:41;97950.00;;;16.34;33.83
75447;BME280;64024;55.820;37.574;2023-03-01T04:31:13;97951.09;;;16.28;33.95
75447;BME280;64024;55.820;37.574;2023-03-01T04:33:54;97957.56;;;16.22;34.04
75447;BME280;64024;55.820;37.574;2023-03-01T04:36:23;97959.44;;;16.16;34.01
75447;BME280;64024;55.820;37.574;2023-03-01T04:38:49;97965.13;;;16.10;34.01
75447;BME280;64024;55.820;37.574;2023-03-01T04:41:17;97962.44;;;16.05;34.02
75447;BME280;64024;55.820;37.574;2023-03-01T04:43:44;97961.41;;;16.01;34.50
75447;BME280;64024;55.820;37.574;2023-03-01T04:46:12;97972.69;;;15.98;34.35
75447;BME280;64024;55.820;37.574;2023-03-01T04:48:40;97972.41;;;15.94;34.61
75447;BME280;64024;55.820;37.574;2023-03-01T04:51:06;97971.06;;;16.02;34.53
75447;BME280;64024;55.820;37.574;2023-03-01T04:53:33;97967.06;;;15.94;34.51
75447;BME280;64024;55.820;37.574;2023-03-01T04:55:59;97968.97;;;15.88;34.44
75447;BME280;64024;55.820;37.574;2023-03-01T04:58:27;97970.84;;;15.83;34.64
75447;BME280;64024;55.820;37.574;2023-03-01T05:00:54;97977.56;;;15.80;34.75
75447;BME280;64024;55.820;37.574;2023-03-01T05:03:20;97973.84;;;15.76;35.03
75447;BME280;64024;55.820;37.574;2023-03-01T05:05:47;97973.28;;;15.74;34.87
75447;BME280;64024;55.820;37.574;2023-03-01T05:08:14;97974.63;;;15.72;35.00
75447;BME280;64024;55.820;37.574;2023-03-01T05:10:50;97980.53;;;15.69;34.93
75447;BME280;64024;55.820;37.574;2023-03-01T05:13:16;97977.31;;;15.66;34.80
75447;BME280;64024;55.820;37.574;2023-03-01T05:15:55;97982.16;;;15.64;35.02
75447;BME280;64024;55.820;37.574;2023-03-01T05:18:21;97985.06;;;15.63;35.21
75447;BME280;64024;55.820;37.574;2023-03-01T05:20:46;97992.56;;;15.61;34.85
75447;BME280;64024;55.820;37.574;2023-03-01T05:23:13;97983.75;;;15.60;35.32
75447;BME280;64024;55.820;37.574;2023-03-01T05:25:38;97986.44;;;15.60;35.21
75447;BME280;64024;55.820;37.574;2023-03-01T05:28:07;97992.84;;;15.59;35.29
75447;BME280;64024;55.820;37.574;2023-03-01T05:30:35;97986.69;;;15.59;35.23
75447;BME280;64024;55.820;37.574;2023-03-01T05:33:00;97993.13;;;15.58;35.55
75447;BME280;64024;55.820;37.574;2023-03-01T05:35:26;98001.16;;;15.58;35.24
75447;BME280;64024;55.820;37.574;2023-03-01T05:37:52;98003.03;;;15.57;35.38
75447;BME280;64024;55.820;37.574;2023-03-01T05:40:22;98007.59;;;15.57;35.18
75447;BME280;64024;55.820;37.574;2023-03-01T05:42:52;98015.06;;;15.55;35.21
75447;BME280;64024;55.820;37.574;2023-03-01T05:45:19;98017.75;;;15.55;35.17
75447;BME280;64024;55.820;37.574;2023-03-01T05:47:47;98001.97;;;15.53;35.16
75447;BME280;64024;55.820;37.574;2023-03-01T05:50:22;98011.06;;;15.52;35.39
75447;BME280;64024;55.820;37.574;2023-03-01T05:52:49;98008.41;;;15.52;35.71
75447;BME280;64024;55.820;37.574;2023-03-01T05:55:18;98014.84;;;15.51;35.52
75447;BME280;64024;55.820;37.574;2023-03-01T05:57:43;98019.34;;;15.51;35.54
75447;BME280;64024;55.820;37.574;2023-03-01T06:00:10;98025.53;;;15.51;35.51
75447;BME280;64024;55.820;37.574;2023-03-01T06:02:37;98030.91;;;15.51;35.45
75447;BME280;64024;55.820;37.574;2023-03-01T06:05:04;98038.38;;;15.49;36.03
75447;BME280;64024;55.820;37.574;2023-03-01T06:07:30;98034.06;;;15.58;35.65
75447;BME280;64024;55.820;37.574;2023-03-01T06:09:56;98022.31;;;15.54;35.77
75447;BME280;64024;55.820;37.574;2023-03-01T06:12:21;98033.28;;;15.53;35.66
75447;BME280;64024;55.820;37.574;2023-03-01T06:14:47;98038.09;;;15.51;35.90
75447;BME280;64024;55.820;37.574;2023-03-01T06:17:13;98030.06;;;15.51;35.72
75447;BME280;64024;55.820;37.574;2023-03-01T06:19:38;98026.88;;;15.49;35.74
75447;BME280;64024;55.820;37.574;2023-03-01T06:22:05;98046.13;;;15.51;35.81
75447;BME280;64024;55.820;37.574;2023-03-01T06:24:30;98038.09;;;15.51;35.51
75447;BME280;64024;55.820;37.574;2023-03-01T06:26:56;98040.78;;;15.51;35.34
75447;BME280;64024;55.820;37.574;2023-03-01T06:29:21;98034.91;;;15.49;35.48
75447;BME280;64024;55.820;37.574;2023-03-01T06:31:48;98040.78;;;15.46;35.37
75447;BME280;64024;55.820;37.574;2023-03-01T06:34:14;98042.94;;;15.44;35.17
75447;BME280;64024;55.820;37.574;2023-03-01T06:36:39;98034.66;;;15.40;34.96
75447;BME280;64024;55.820;37.574;2023-03-01T06:39:05;98022.88;;;15.36;35.18
75447;BME280;64024;55.820;37.574;2023-03-01T06:41:32;98041.34;;;15.32;34.77
75447;BME280;64024;55.820;37.574;2023-03-01T06:43:59;98034.09;;;15.28;34.66
75447;BME280;64024;55.820;37.574;2023-03-01T06:46:25;98040.00;;;15.25;34.76
75447;BME280;64024;55.820;37.574;2023-03-01T06:48:50;98046.16;;;15.20;34.35
75447;BME280;64024;55.820;37.574;2023-03-01T06:51:16;98044.28;;;15.15;34.36
75447;BME280;64024;55.820;37.574;2023-03-01T06:53:41;98054.72;;;15.12;34.19
75447;BME280;64024;55.820;37.574;2023-03-01T06:56:07;98043.72;;;15.08;34.03
75447;BME280;64024;55.820;37.574;2023-03-01T06:58:32;98039.19;;;15.04;33.88
75447;BME280;64024;55.820;37.574;2023-03-01T07:00:58;98033.31;;;15.02;33.55
75447;BME280;64024;55.820;37.574;2023-03-01T07:03:23;98048.28;;;14.98;33.53
75447;BME280;64024;55.820;37.574;2023-03-01T07:05:49;98057.09;;;14.93;33.63
75447;BME280;64024;55.820;37.574;2023-03-01T07:08:18;98054.41;;;14.88;33.02
75447;BME280;64024;55.820;37.574;2023-03-01T07:10:44;98071.00;;;14.85;33.47
75447;BME280;64024;55.820;37.574;2023-03-01T07:13:09;98070.72;;;14.81;32.95
75447;BME280;64024;55.820;37.574;2023-03-01T07:15:35;98071.25;;;14.78;32.89
75447;BME280;64024;55.820;37.574;2023-03-01T07:18:00;98073.63;;;14.75;33.21
75447;BME280;64024;55.820;37.574;2023-03-01T07:20:26;98074.94;;;14.72;32.79
75447;BME280;64024;55.820;37.574;2023-03-01T07:22:52;98062.13;;;14.69;32.71
75447;BME280;64024;55.820;37.574;2023-03-01T07:25:18;98090.47;;;14.70;32.69
75447;BME280;64024;55.820;37.574;2023-03-01T07:27:49;98092.06;;;14.76;31.74
75447;BME280;64024;55.820;37.574;2023-03-01T07:30:14;98087.56;;;14.87;31.95
75447;BME280;64024;55.820;37.574;2023-03-01T07:32:40;98102.06;;;15.01;32.02
75447;BME280;64024;55.820;37.574;2023-03-01T07:35:06;98095.13;;;15.15;31.94
75447;BME280;64024;55.820;37.574;2023-03-01T07:37:31;98085.25;;;15.31;32.08
75447;BME280;64024;55.820;37.574;2023-03-01T07:39:57;98092.72;;;15.50;32.03
75447;BME280;64024;55.820;37.574;2023-03-01T07:42:22;98082.56;;;15.67;31.25
75447;BME280;64024;55.820;37.574;2023-03-01T07:44:48;98099.19;;;15.84;31.26
75447;BME280;64024;55.820;37.574;2023-03-01T07:47:14;98099.41;;;16.03;31.04
75447;BME280;64024;55.820;37.574;2023-03-01T07:49:39;98091.84;;;16.21;30.83
75447;BME280;64024;55.820;37.574;2023-03-01T07:52:05;98097.69;;;16.38;30.76
75447;BME280;64024;55.820;37.574;2023-03-01T07:54:30;98097.38;;;16.55;30.42
75447;BME280;64024;55.820;37.574;2023-03-01T07:56:56;98105.91;;;16.72;30.28
75447;BME280;64024;55.820;37.574;2023-03-01T07:59:22;98091.91;;;16.85;30.27
75447;BME280;64024;55.820;37.574;2023-03-01T08:01:54;98081.91;;;16.96;30.12
75447;BME280;64024;55.820;37.574;2023-03-01T08:04:20;98087.00;;;16.98;29.94
75447;BME280;64024;55.820;37.574;2023-03-01T08:06:45;98080.53;;;16.99;29.94
75447;BME280;64024;55.820;37.574;2023-03-01T08:09:11;98092.38;;;16.98;29.52
75447;BME280;64024;55.820;37.574;2023-03-01T08:11:36;98088.88;;;16.97;29.66
75447;BME280;64024;55.820;37.574;2023-03-01T08:14:02;98094.81;;;16.94;29.67
75447;BME280;64024;55.820;37.574;2023-03-01T08:16:29;98089.97;;;16.91;29.49
75447;BME280;64024;55.820;37.574;2023-03-01T08:18:54;98093.25;;;16.88;29.37
75447;BME280;64024;55.820;37.574;2023-03-01T08:21:21;98105.84;;;16.82;29.59
75447;BME280;64024;55.820;37.574;2023-03-01T08:23:47;98102.13;;;16.78;29.24
75447;BME280;64024;55.820;37.574;2023-03-01T08:26:19;98096.00;;;16.73;29.00
75447;BME280;64024;55.820;37.574;2023-03-01T08:28:46;98100.53;;;16.67;29.27
75447;BME280;64024;55.820;37.574;2023-03-01T08:31:25;98113.97;;;16.62;28.93
75447;BME280;64024;55.820;37.574;2023-03-01T08:33:54;98122.03;;;16.57;29.24
75447;BME280;64024;55.820;37.574;2023-03-01T08:36:28;98125.00;;;16.50;29.23
75447;BME280;64024;55.820;37.574;2023-03-01T08:38:54;98130.41;;;16.45;29.09
75447;BME280;64024;55.820;37.574;2023-03-01T08:41:19;98126.94;;;16.39;29.22
75447;BME280;64024;55.820;37.574;2023-03-01T08:43:45;98126.97;;;16.34;29.17
75447;BME280;64024;55.820;37.574;2023-03-01T08:46:12;98123.47;;;16.29;29.24
75447;BME280;64024;55.820;37.574;2023-03-01T08:48:38;98138.78;;;16.23;28.93
75447;BME280;64024;55.820;37.574;2023-03-01T08:51:11;98124.59;;;16.18;28.87
75447;BME280;64024;55.820;37.574;2023-03-01T08:53:38;98129.13;;;16.12;28.99
75447;BME280;64024;55.820;37.574;2023-03-01T08:56:04;98122.72;;;16.08;28.87
75447;BME280;64024;55.820;37.574;2023-03-01T08:58:29;98129.16;;;16.02;28.95
75447;BME280;64024;55.820;37.574;2023-03-01T09:00:55;98140.69;;;15.97;28.70
75447;BME280;64024;55.820;37.574;2023-03-01T09:03:24;98134.81;;;15.90;29.07
75447;BME280;64024;55.820;37.574;2023-03-01T09:05:51;98136.41;;;15.86;28.78
75447;BME280;64024;55.820;37.574;2023-03-01T09:08:17;98129.19;;;15.81;28.98
75447;BME280;64024;55.820;37.574;2023-03-01T09:10:43;98132.13;;;15.80;29.15
75447;BME280;64024;55.820;37.574;2023-03-01T09:13:09;98138.03;;;15.82;29.57
75447;BME280;64024;55.820;37.574;2023-03-01T09:15:36;98135.63;;;15.85;30.46
75447;BME280;64024;55.820;37.574;2023-03-01T09:18:02;98124.09;;;15.90;30.96
75447;BME280;64024;55.820;37.574;2023-03-01T09:20:28;98131.03;;;15.96;31.34
75447;BME280;64024;55.820;37.574;2023-03-01T09:22:53;98129.41;;;16.00;31.47
75447;BME280;64024;55.820;37.574;2023-03-01T09:25:19;98127.28;;;16.02;31.90
75447;BME280;64024;55.820;37.574;2023-03-01T09:27:44;98125.94;;;16.05;32.19
75447;BME280;64024;55.820;37.574;2023-03-01T09:30:10;98120.03;;;16.08;32.17
75447;BME280;64024;55.820;37.574;2023-03-01T09:32:36;98125.94;;;16.10;32.36
75447;BME280;64024;55.820;37.574;2023-03-01T09:35:02;98128.06;;;16.13;32.61
75447;BME280;64024;55.820;37.574;2023-03-01T09:37:35;98126.44;;;16.17;32.67
75447;BME280;64024;55.820;37.574;2023-03-01T09:40:01;98126.44;;;16.22;32.83
75447;BME280;64024;55.820;37.574;2023-03-01T09:42:29;98126.16;;;16.24;32.99
75447;BME280;64024;55.820;37.574;2023-03-01T09:45:04;98135.81;;;16.30;32.97
75447;BME280;64024;55.820;37.574;2023-03-01T09:47:33;98124.53;;;16.33;33.08
75447;BME280;64024;55.820;37.574;2023-03-01T09:54:55;98127.19;;;16.43;33.38
75447;BME280;64024;55.820;37.574;2023-03-01T10:03:15;98137.84;;;16.58;33.54
75447;BME280;64024;55.820;37.574;2023-03-01T10:08:43;98139.97;;;16.66;33.77
75447;BME280;64024;55.820;37.574;2023-03-01T10:11:32;98150.16;;;16.70;33.45
75447;BME280;64024;55.820;37.574;2023-03-01T10:20:17;98157.66;;;16.83;33.42
75447;BME280;64024;55.820;37.574;2023-03-01T10:22:42;98160.06;;;16.84;33.44
75447;BME280;64024;55.820;37.574;2023-03-01T10:25:14;98150.94;;;16.85;33.81
75447;BME280;64024;55.820;37.574;2023-03-01T10:27:46;98150.41;;;16.88;33.45
75447;BME280;64024;55.820;37.574;2023-03-01T10:30:32;98136.41;;;16.92;33.42
75447;BME280;64024;55.820;37.574;2023-03-01T10:33:00;98147.69;;;16.94;33.43
75447;BME280;64024;55.820;37.574;2023-03-01T10:35:28;98143.09;;;16.94;33.35
75447;BME280;64024;55.820;37.574;2023-03-01T10:38:13;98143.38;;;16.98;33.28
75447;BME280;64024;55.820;37.574;2023-03-01T10:43:24;98147.34;;;17.00;33.10
75447;BME280;64024;55.820;37.574;2023-03-01T10:45:50;98142.81;;;17.01;33.31
75447;BME280;64024;55.820;37.574;2023-03-01T10:48:22;98150.59;;;17.02;33.33
75447;BME280;64024;55.820;37.574;2023-03-01T10:53:35;98146.81;;;17.03;33.17
75447;BME280;64024;55.820;37.574;2023-03-01T10:56:05;98151.09;;;17.04;33.09
75447;BME280;64024;55.820;37.574;2023-03-01T10:58:32;98154.31;;;17.06;33.07
75447;BME280;64024;55.820;37.574;2023-03-01T11:03:38;98135.78;;;17.10;33.10
75447;BME280;64024;55.820;37.574;2023-03-01T11:08:43;98143.53;;;17.11;33.25
75447;BME280;64024;55.820;37.574;2023-03-01T11:13:47;98142.19;;;17.14;33.13
75447;BME280;64024;55.820;37.574;2023-03-01T11:16:14;98150.78;;;17.16;32.93
75447;BME280;64024;55.820;37.574;2023-03-01T11:18:40;98143.50;;;17.17;33.07
75447;BME280;64024;55.820;37.574;2023-03-01T11:21:07;98137.09;;;17.18;33.23
75447;BME280;64024;55.820;37.574;2023-03-01T11:23:34;98136.50;;;17.21;33.12
75447;BME280;64024;55.820;37.574;2023-03-01T11:26:07;98142.41;;;17.23;33.15
75447;BME280;64024;55.820;37.574;2023-03-01T11:28:36;98146.69;;;17.24;32.87
75447;BME280;64024;55.820;37.574;2023-03-01T11:31:04;98156.09;;;17.26;33.06
75447;BME280;64024;55.820;37.574;2023-03-01T11:33:46;98160.91;;;17.29;33.19
75447;BME280;64024;55.820;37.574;2023-03-01T11:36:35;98154.97;;;17.32;33.19
75447;BME280;64024;55.820;37.574;2023-03-01T11:39:22;98151.44;;;17.37;33.37
75447;BME280;64024;55.820;37.574;2023-03-01T11:42:05;98163.81;;;17.38;33.41
75447;BME280;64024;55.820;37.574;2023-03-01T11:44:34;98151.19;;;17.38;33.19
75447;BME280;64024;55.820;37.574;2023-03-01T11:52:37;98137.47;;;17.40;33.14
75447;BME280;64024;55.820;37.574;2023-03-01T12:05:49;98155.75;;;17.38;32.96
75447;BME280;64024;55.820;37.574;2023-03-01T12:14:06;98159.00;;;17.35;33.00
75447;BME280;64024;55.820;37.574;2023-03-01T12:22:24;98157.16;;;17.30;33.08
75447;BME280;64024;55.820;37.574;2023-03-01T12:30:45;98153.41;;;17.26;32.90
75447;BME280;64024;55.820;37.574;2023-03-01T12:33:29;98149.94;;;17.26;33.43
75447;BME280;64024;55.820;37.574;2023-03-01T12:37:03;98152.63;;;17.26;33.69
75447;BME280;64024;55.820;37.574;2023-03-01T12:39:11;98144.25;;;17.27;33.79
75447;BME280;64024;55.820;37.574;2023-03-01T12:44:59;98153.91;;;17.28;33.69
75447;BME280;64024;55.820;37.574;2023-03-01T12:50:17;98142.38;;;17.28;33.71
75447;BME280;64024;55.820;37.574;2023-03-01T12:52:47;98146.16;;;17.27;33.54
75447;BME280;64024;55.820;37.574;2023-03-01T12:55:36;98145.06;;;17.28;33.84
75447;BME280;64024;55.820;37.574;2023-03-01T13:15:27;98161.19;;;17.28;33.78
75447;BME280;64024;55.820;37.574;2023-03-01T13:18:02;98157.19;;;17.25;33.78
75447;BME280;64024;55.820;37.574;2023-03-01T13:26:06;98148.63;;;17.18;34.00
75447;BME280;64024;55.820;37.574;2023-03-01T13:33:47;98140.34;;;17.09;34.17
75447;BME280;64024;55.820;37.574;2023-03-01T13:36:45;98140.81;;;17.17;34.10
75447;BME280;64024;55.820;37.574;2023-03-01T13:39:04;98127.44;;;17.11;34.26
75447;BME280;64024;55.820;37.574;2023-03-01T13:46:51;98148.72;;;16.98;34.18
75447;BME280;64024;55.820;37.574;2023-03-01T13:49:20;98142.31;;;16.94;34.35
75447;BME280;64024;55.820;37.574;2023-03-01T13:51:48;98144.75;;;16.90;34.37
75447;BME280;64024;55.820;37.574;2023-03-01T13:54:15;98155.22;;;16.86;34.51
75447;BME280;64024;55.820;37.574;2023-03-01T13:56:43;98149.34;;;16.84;34.20
75447;BME280;64024;55.820;37.574;2023-03-01T13:59:18;98144.22;;;16.83;34.38
75447;BME280;64024;55.820;37.574;2023-03-01T14:01:43;98134.06;;;16.80;34.48
75447;BME280;64024;55.820;37.574;2023-03-01T14:04:24;98134.31;;;16.78;34.58
75447;BME280;64024;55.820;37.574;2023-03-01T14:07:20;98131.13;;;16.76;34.44
75447;BME280;64024;55.820;37.574;2023-03-01T14:09:53;98137.03;;;16.73;34.53
75447;BME280;64024;55.820;37.574;2023-03-01T14:12:40;98139.44;;;16.70;34.52
75447;BME280;64024;55.820;37.574;2023-03-01T14:20:44;98120.97;;;16.63;34.75
75447;BME280;64024;55.820;37.574;2023-03-01T14:23:21;98119.06;;;16.58;34.51
75447;BME280;64024;55.820;37.574;2023-03-01T14:25:50;98118.56;;;16.56;34.58
75447;BME280;64024;55.820;37.574;2023-03-01T14:28:19;98113.75;;;16.53;34.70
75447;BME280;64024;55.820;37.574;2023-03-01T14:30:57;98107.84;;;16.51;34.52
75447;BME280;64024;55.820;37.574;2023-03-01T14:33:30;98111.09;;;16.48;34.63
75447;BME280;64024;55.820;37.574;2023-03-01T14:38:37;98107.34;;;16.44;34.84
75447;BME280;64024;55.820;37.574;2023-03-01T14:41:13;98108.69;;;16.41;34.58
75447;BME280;64024;55.820;37.574;2023-03-01T14:43:43;98099.31;;;16.39;35.02
75447;BME280;64024;55.820;37.574;2023-03-01T14:46:38;98100.38;;;16.38;35.21
75447;BME280;64024;55.820;37.574;2023-03-01T14:49:16;98101.75;;;16.35;35.13
75447;BME280;64024;55.820;37.574;2023-03-01T14:56:47;98103.09;;;16.28;35.11
75447;BME280;64024;55.820;37.574;2023-03-01T14:59:12;98096.41;;;16.25;35.16
75447;BME280;64024;55.820;37.574;2023-03-01T15:01:40;98091.31;;;16.24;35.12
75447;BME280;64024;55.820;37.574;2023-03-01T15:04:10;98104.47;;;16.20;35.17
75447;BME280;64024;55.820;37.574;2023-03-01T15:06:38;98097.50;;;16.19;35.35
75447;BME280;64024;55.820;37.574;2023-03-01T15:09:04;98110.34;;;16.17;35.17
75447;BME280;64024;55.820;37.574;2023-03-01T15:11:31;98110.13;;;16.13;35.00
75447;BME280;64024;55.820;37.574;2023-03-01T15:13:58;98102.34;;;16.12;35.33
75447;BME280;64024;55.820;37.574;2023-03-01T15:16:34;98103.41;;;16.11;35.73